createdAt,value
2018-06-22T00:00:23.058Z,72.34
2018-06-22T00:05:25.188Z,72.41
2018-06-22T00:10:27.330Z,72.39
2018-06-22T00:15:29.513Z,72.13
2018-06-22T00:20:31.674Z,72.33
2018-06-22T00:25:33.823Z,72.21
2018-06-22T00:30:35.956Z,71.87
2018-06-22T00:35:38.111Z,71.97
2018-06-22T00:40:40.221Z,72.32
2018-06-22T00:45:42.351Z,72.62
2018-06-22T00:50:44.489Z,72.32
2018-06-22T00:55:46.613Z,72.84
2018-06-22T01:00:48.747Z,72.90
2018-06-22T01:05:50.888Z,72.78
2018-06-22T01:10:52.994Z,73.13
2018-06-22T01:15:55.136Z,73.35
2018-06-22T01:20:57.265Z,74.07
2018-06-22T01:25:59.408Z,73.61
2018-06-22T01:31:01.584Z,73.73
2018-06-22T01:36:03.763Z,73.79
2018-06-22T01:41:05.882Z,74.23
2018-06-22T01:46:08.037Z,73.98
2018-06-22T01:51:10.167Z,73.90
2018-06-22T01:56:12.274Z,73.82
2018-06-22T02:01:14.365Z,73.63
2018-06-22T02:06:16.464Z,74.10
2018-06-22T02:11:18.630Z,74.33
2018-06-22T02:16:20.814Z,74.25
2018-06-22T02:21:22.974Z,74.23
2018-06-22T02:26:25.109Z,74.29
2018-06-22T02:31:27.246Z,74.37
2018-06-22T02:36:29.372Z,74.45
2018-06-22T02:41:31.493Z,74.80
2018-06-22T02:46:33.633Z,74.86
2018-06-22T02:51:35.916Z,74.15
2018-06-22T02:56:38.064Z,74.90
2018-06-22T03:01:40.197Z,74.27
2018-06-22T03:06:42.315Z,74.53
2018-06-22T03:11:44.419Z,74.12
2018-06-22T03:16:46.569Z,73.63
2018-06-22T03:21:48.662Z,74.41
2018-06-22T03:26:50.789Z,73.77
2018-06-22T03:31:52.941Z,73.86
2018-06-22T03:36:55.088Z,74.06
2018-06-22T03:41:57.215Z,74.54
2018-06-22T03:46:59.348Z,74.08
2018-06-22T03:52:01.468Z,74.39
2018-06-22T03:57:03.570Z,74.77
2018-06-22T04:02:05.770Z,74.70
2018-06-22T04:12:38.844Z,74.55
2018-06-22T04:17:47.075Z,74.24
2018-06-22T04:22:50.079Z,74.02
2018-06-22T04:27:52.558Z,73.09
2018-06-22T04:32:54.640Z,72.98
2018-06-22T04:37:56.826Z,72.68
2018-06-22T04:42:58.949Z,72.09
2018-06-22T04:48:01.084Z,71.52
2018-06-22T04:53:03.225Z,71.75
2018-06-22T04:58:05.344Z,71.57
2018-06-22T05:03:07.466Z,70.02
2018-06-22T05:08:09.916Z,69.58
2018-06-22T05:13:12.188Z,69.11
2018-06-22T05:18:14.343Z,69.35
2018-06-22T05:23:16.482Z,69.36
2018-06-22T05:28:18.588Z,68.96
2018-06-22T05:33:20.698Z,68.76
2018-06-22T05:38:22.838Z,68.60
2018-06-22T05:43:25.005Z,68.91
2018-06-22T05:48:27.180Z,68.28
2018-06-22T05:53:29.319Z,68.73
2018-06-22T05:58:31.470Z,69.28
2018-06-22T06:03:33.644Z,68.80
2018-06-22T06:08:35.809Z,68.22
2018-06-22T06:13:37.987Z,67.66
2018-06-22T06:18:40.152Z,68.04
2018-06-22T06:28:57.871Z,65.71
2018-06-22T06:33:59.965Z,66.11
2018-06-22T06:39:02.125Z,67.41
2018-06-22T06:44:04.285Z,66.78
2018-06-22T06:49:06.444Z,66.96
2018-06-22T06:54:08.571Z,67.67
2018-06-22T06:59:10.687Z,65.13
2018-06-22T07:04:12.829Z,64.70
2018-06-22T07:09:14.946Z,64.34
2018-06-22T07:14:17.141Z,66.48
2018-06-22T07:19:19.310Z,62.91
2018-06-22T07:24:21.489Z,62.45
2018-06-22T07:29:25.626Z,62.11
2018-06-22T07:34:27.744Z,59.32
2018-06-22T07:39:29.879Z,58.53
2018-06-22T07:44:32.087Z,59.75
2018-06-22T07:49:34.301Z,58.18
2018-06-22T07:54:36.479Z,56.56
2018-06-22T07:59:38.962Z,59.16
2018-06-22T08:04:41.122Z,57.40
2018-06-22T08:09:43.305Z,56.85
2018-06-22T08:14:45.442Z,56.86
2018-06-22T08:19:47.662Z,57.45
2018-06-22T08:24:49.893Z,56.25
2018-06-22T08:29:52.038Z,54.03
2018-06-22T08:34:54.192Z,53.23
2018-06-22T08:39:56.543Z,54.55
2018-06-22T08:44:58.672Z,51.72
2018-06-22T08:50:00.993Z,54.03
2018-06-22T08:55:03.132Z,52.92
2018-06-22T09:00:05.298Z,55.42
2018-06-22T09:05:07.619Z,52.98
2018-06-22T09:10:09.787Z,55.47
2018-06-22T09:15:11.954Z,50.03
2018-06-22T09:20:14.133Z,52.80
2018-06-22T09:25:16.299Z,52.47
2018-06-22T09:30:18.450Z,51.69
2018-06-22T09:35:21.006Z,53.17
2018-06-22T09:40:23.180Z,50.79
2018-06-22T09:45:25.337Z,52.67
2018-06-22T09:50:27.512Z,51.66
2018-06-22T09:55:29.667Z,52.72
2018-06-22T10:00:31.851Z,51.44
2018-06-22T10:05:33.974Z,49.36
2018-06-22T10:10:36.120Z,50.31
2018-06-22T10:15:38.300Z,51.52
2018-06-22T10:20:40.498Z,50.29
2018-06-22T10:25:43.247Z,49.43
2018-06-22T10:30:45.558Z,52.16
2018-06-22T10:35:47.804Z,51.15
2018-06-22T10:40:50.077Z,49.20
2018-06-22T10:45:52.244Z,52.06
2018-06-22T10:50:54.476Z,48.76
2018-06-22T10:55:56.734Z,47.68
2018-06-22T11:00:58.947Z,49.00
2018-06-22T11:06:06.568Z,49.56
2018-06-22T11:11:09.158Z,51.56
2018-06-22T11:16:18.154Z,47.77
2018-06-22T11:21:20.538Z,45.76
2018-06-22T11:26:22.726Z,47.63
2018-06-22T11:31:24.910Z,45.07
2018-06-22T11:36:27.164Z,47.99
2018-06-22T11:41:29.348Z,46.23
2018-06-22T11:46:31.528Z,47.28
2018-06-22T11:51:33.816Z,46.40
2018-06-22T11:56:35.978Z,44.24
2018-06-22T12:01:38.210Z,44.98
2018-06-22T12:06:40.451Z,48.77
2018-06-22T12:11:42.708Z,45.91
2018-06-22T12:16:44.875Z,47.07
2018-06-22T12:21:47.079Z,48.03
2018-06-22T12:26:49.253Z,45.75
2018-06-22T12:31:52.169Z,46.83
2018-06-22T12:36:54.356Z,44.77
2018-06-22T12:41:56.587Z,45.06
2018-06-22T12:46:58.803Z,46.21
2018-06-22T12:52:00.993Z,44.29
2018-06-22T12:57:03.247Z,42.66
2018-06-22T13:02:05.699Z,45.30
2018-06-22T13:07:07.897Z,45.08
2018-06-22T13:12:10.098Z,46.40
2018-06-22T13:17:12.446Z,46.38
2018-06-22T13:22:14.701Z,46.43
2018-06-22T13:27:16.864Z,45.33
2018-06-22T13:32:19.091Z,44.13
2018-06-22T13:37:21.278Z,45.79
2018-06-22T13:42:23.494Z,42.01
2018-06-22T13:47:25.701Z,42.66
2018-06-22T13:52:28.583Z,44.10
2018-06-22T13:57:30.808Z,43.05
2018-06-22T14:02:32.983Z,42.04
2018-06-22T14:07:35.196Z,42.45
2018-06-22T14:12:37.413Z,45.12
2018-06-22T14:17:39.710Z,46.77
2018-06-22T14:22:42.354Z,46.74
2018-06-22T14:27:44.611Z,48.22
2018-06-22T14:32:46.845Z,51.35
2018-06-22T14:37:49.127Z,50.14
2018-06-22T14:42:51.443Z,51.16
2018-06-22T14:47:53.645Z,50.22
2018-06-22T14:52:55.883Z,52.11
2018-06-22T14:58:03.700Z,53.39
2018-06-22T15:03:11.611Z,51.26
2018-06-22T15:08:18.658Z,51.53
2018-06-22T15:13:20.864Z,53.71
2018-06-22T15:18:23.053Z,54.19
2018-06-22T15:23:25.317Z,55.45
2018-06-22T15:28:27.524Z,57.08
2018-06-22T15:33:35.408Z,58.97
2018-06-22T15:38:43.316Z,58.30
2018-06-22T15:43:51.266Z,60.18
2018-06-22T15:48:59.243Z,60.25
2018-06-22T15:54:07.075Z,61.53
2018-06-22T15:59:09.343Z,60.71
2018-06-22T16:04:12.301Z,61.30
2018-06-22T16:09:14.488Z,61.43
2018-06-22T16:14:22.456Z,62.12
2018-06-22T16:19:30.408Z,61.97
2018-06-22T16:24:38.138Z,62.39
2018-06-22T16:29:40.323Z,64.39
2018-06-22T16:34:42.499Z,67.62
2018-06-22T16:39:44.719Z,68.75
2018-06-22T16:44:46.850Z,68.91
2018-06-22T16:49:49.017Z,68.48
2018-06-22T16:54:51.218Z,69.16
2018-06-22T16:59:53.392Z,67.74
2018-06-22T17:04:55.588Z,66.75
2018-06-22T17:10:03.526Z,66.73
2018-06-22T17:15:11.533Z,66.74
2018-06-22T17:20:13.721Z,65.59
2018-06-22T17:25:15.894Z,64.26
2018-06-22T17:30:18.063Z,63.66
2018-06-22T17:35:20.234Z,64.19
2018-06-22T17:40:22.412Z,64.28
2018-06-22T17:45:24.606Z,65.92
2018-06-22T17:50:29.100Z,66.47
2018-06-22T17:55:31.290Z,65.82
2018-06-22T18:00:39.125Z,67.29
2018-06-22T18:05:47.122Z,66.53
2018-06-22T18:10:55.113Z,66.66
2018-06-22T18:15:57.325Z,69.42
2018-06-22T18:21:00.296Z,69.78
2018-06-22T18:26:02.548Z,70.63
2018-06-22T18:31:04.976Z,71.00
2018-06-22T18:36:07.147Z,72.27
2018-06-22T18:41:09.348Z,72.66
2018-06-22T18:46:11.549Z,73.16
2018-06-22T18:51:13.757Z,73.15
2018-06-22T18:56:21.746Z,73.73
2018-06-22T19:01:29.745Z,72.45
2018-06-22T19:06:31.942Z,72.48
2018-06-22T19:11:34.152Z,72.85
2018-06-22T19:16:36.473Z,72.64
2018-06-22T19:21:38.770Z,73.09
2018-06-22T19:26:40.996Z,72.11
2018-06-22T19:31:43.193Z,71.99
2018-06-22T19:36:45.385Z,72.77
2018-06-22T19:41:47.591Z,71.81
2018-06-22T19:46:55.656Z,72.14
2018-06-22T19:52:03.522Z,72.06
2018-06-22T19:57:05.730Z,70.84
2018-06-22T20:02:07.949Z,70.17
2018-06-22T20:07:10.200Z,70.16
2018-06-22T20:12:12.400Z,69.62
2018-06-22T20:17:14.664Z,68.61
2018-06-22T20:22:16.854Z,68.28
2018-06-22T20:27:19.045Z,67.90
2018-06-22T20:32:21.284Z,67.96
2018-06-22T20:37:29.174Z,67.50
2018-06-22T20:42:37.098Z,66.66
2018-06-22T20:47:45.061Z,67.42
2018-06-22T20:52:47.237Z,67.63
2018-06-22T20:57:49.433Z,67.68
2018-06-22T21:02:51.633Z,66.79
2018-06-22T21:07:53.797Z,67.13
2018-06-22T21:12:56.147Z,65.72
2018-06-22T21:17:58.344Z,66.32
2018-06-22T21:23:00.533Z,66.55
2018-06-22T21:28:08.441Z,66.60
2018-06-22T21:33:16.428Z,66.84
2018-06-22T21:39:24.568Z,67.68
2018-06-22T21:44:26.782Z,66.88
2018-06-22T21:49:29.046Z,66.93
2018-06-22T21:54:31.264Z,67.46
2018-06-22T21:59:33.452Z,66.75
2018-06-22T22:04:35.619Z,67.41
2018-06-22T22:09:40.781Z,66.97
2018-06-22T22:14:42.993Z,67.21
2018-06-22T22:19:45.183Z,67.47
2018-06-22T22:24:47.441Z,66.62
2018-06-22T22:29:49.674Z,66.93
2018-06-22T22:34:51.929Z,66.59
2018-06-22T22:39:54.073Z,67.32
2018-06-22T22:44:56.360Z,66.90
2018-06-22T22:49:58.549Z,67.45
2018-06-22T22:55:01.273Z,67.12
2018-06-22T23:00:03.510Z,66.68
2018-06-22T23:05:05.696Z,66.75
2018-06-22T23:10:07.937Z,67.09
2018-06-22T23:15:10.175Z,67.53
2018-06-22T23:20:12.390Z,67.35
2018-06-22T23:25:14.769Z,67.91
2018-06-22T23:30:17.129Z,67.83
2018-06-22T23:35:24.187Z,68.76
2018-06-22T23:40:26.338Z,68.57
2018-06-22T23:45:28.524Z,68.78
2018-06-22T23:50:30.727Z,69.63
2018-06-22T23:55:33.157Z,69.51
